Terminal Aerodrome Forecast
Issued by NWS

Home | Current Version | Previous Version | Text Only | Print | Product List | Glossary On
Versions: 1 2 3 4 5 6 7 8 9 10 11 12 13 14 15 16 17 18 19 20 21 22 23 24 25 26 27 28 29 30 31 32 33 34 35 36 37 38 39 40 41 42
000
FTUS41 KBOX 202343
TAFHYA
TAF
KHYA 202343Z 2100/2124 23008G18KT 1/2SM FG OVC002
     FM210500 24009KT 1/4SM +DZ FG BKN003
     FM211300 23012KT 1/4SM FG OVC001 WS020/25050KT
     FM211800 22014KT 1SM BR BKN003 WS020/25045KT
     FM212100 22015KT 6SM BR OVC008 WS020/25045KT
     FM212300 23014KT P6SM OVC250 WS020/26045KT=

USA.gov is the U.S. government's official web portal to all federal, state and local government web resources and services.